Shin Mei Maru — JG5617 — position and weather

sailwx.info

Track history (hours):
 
Tides and Currents Weather Stations Pressure Air Temp Water Temp Dewpoint Dewpoint Depression Visibility Wind Speed Wind Dir Waves Ship Positions

Shin Mei Maru

Last reported at 2014-Aug-22 11:31 UTC. Time now 2014-Aug-22 11:54 UTC.
Position N 35°38' E 139°46'.

Length 160 m; draft 6.8 m.

Type: Cargo ship. MMSI: 431100922.

Date/timePositionNaut miles runAvg speedWind from/ knotsBaromVisibWave heightAir tempDewpointWater temp
2014-Aug-22 11:31N 35°38' E 139°46'0 0.0
2014-Aug-22 10:31N 35°38' E 139°46'0 0.0
2014-Aug-22 09:25N 35°38' E 139°46'0 0.0
2014-Aug-22 08:25N 35°38' E 139°46'0 0.0
2014-Aug-22 07:25N 35°38' E 139°46'0 0.0
2014-Aug-22 06:22N 35°38' E 139°46'0 0.0
2014-Aug-22 05:28N 35°38' E 139°46'0 0.0
2014-Aug-22 04:31N 35°38' E 139°46'0 0.0
2014-Aug-22 03:31N 35°38' E 139°46'0 0.0
2014-Aug-22 02:31N 35°38' E 139°46'0 0.0
2014-Aug-22 01:28N 35°38' E 139°46'0 0.0
2014-Aug-22 00:28N 35°38' E 139°46'0 0.0
2014-Aug-21 23:31N 35°38' E 139°46'0 0.0
2014-Aug-21 22:28N 35°38' E 139°46'3 3.5
2014-Aug-21 21:34N 35°35' E 139°48'1312.6
2014-Aug-21 20:33N 35°23' E 139°46'1010.0
2014-Aug-21 19:33N 35°13' E 139°47'1717.2
2014-Aug-21 18:33N 34°56' E 139°43'1514.9
2014-Aug-21 17:33N 34°53' E 140°00'1515.5
2014-Aug-21 16:33N 34°60' E 140°17'1615.5
2014-Aug-21 15:33N 35°10' E 140°32'1616.5
2014-Aug-21 14:33N 35°23' E 140°44'1717.1
2014-Aug-21 13:33N 35°37' E 140°56'1717.1
2014-Aug-21 12:33N 35°52' E 141°05'1817.5
2014-Aug-21 11:33N 36°09' E 141°10'  
2014-Aug-18 22:06N 36°53' E 141°25'916.2
2014-Aug-18 21:31N 36°44' E 141°22'3816.7
2014-Aug-18 19:14N 36°07' E 141°10'1216.4
2014-Aug-18 18:31N 35°56' E 141°06'1616.7
2014-Aug-18 17:33N 35°41' E 141°01'1616.4
2014-Aug-18 16:33N 35°27' E 140°50'1716.7
2014-Aug-18 15:33N 35°14' E 140°36'1716.9
2014-Aug-18 14:33N 35°01' E 140°23'1716.9
2014-Aug-18 13:33N 34°53' E 140°05'1615.9
2014-Aug-18 12:33N 34°52' E 139°46'1514.8
2014-Aug-18 11:33N 35°07' E 139°44'1312.9
2014-Aug-18 10:33N 35°19' E 139°43'1414.4
2014-Aug-18 09:33N 35°32' E 139°51'7 7.5
2014-Aug-18 08:33N 35°38' E 139°46'0 0.0
2014-Aug-18 07:32N 35°38' E 139°46'0 0.0
2014-Aug-18 06:32N 35°38' E 139°46'0 0.0
2014-Aug-18 05:32N 35°38' E 139°46'0 0.0
2014-Aug-18 04:32N 35°38' E 139°46'0 0.0
2014-Aug-18 03:32N 35°38' E 139°46'0 0.0
2014-Aug-18 02:33N 35°38' E 139°46'8 8.0
2014-Aug-18 01:33N 35°32' E 139°52'1515.0
2014-Aug-18 00:33N 35°18' E 139°45'25014.5
2014-Aug-17 07:16N 33°54' E 134°58'1115.2
2014-Aug-17 06:33N 34°04' E 134°58'1313.4
2014-Aug-17 05:33N 34°18' E 134°58'1616.5
2014-Aug-17 04:33N 34°33' E 135°06'1110.6
2014-Aug-17 03:34N 34°37' E 134°54'  
Track history (hours):
 
Tides and Currents Weather Stations Pressure Air Temp Water Temp Dewpoint Dewpoint Depression Visibility Wind Speed Wind Dir Waves Ship Positions

Shin Mei Maru

Last reported at 2014-Aug-22 11:31 UTC. Time now 2014-Aug-22 11:54 UTC.
Position N 35°38' E 139°46'.

Length 160 m; draft 6.8 m.

Type: Cargo ship. MMSI: 431100922.

Date/timePositionNaut miles runAvg speedWind from/ knotsBaromVisibWave heightAir tempDewpointWater temp
2014-Aug-22 11:31N 35°38' E 139°46'0 0.0
2014-Aug-22 10:31N 35°38' E 139°46'0 0.0
2014-Aug-22 09:25N 35°38' E 139°46'0 0.0
2014-Aug-22 08:25N 35°38' E 139°46'0 0.0
2014-Aug-22 07:25N 35°38' E 139°46'0 0.0
2014-Aug-22 06:22N 35°38' E 139°46'0 0.0
2014-Aug-22 05:28N 35°38' E 139°46'0 0.0
2014-Aug-22 04:31N 35°38' E 139°46'0 0.0
2014-Aug-22 03:31N 35°38' E 139°46'0 0.0
2014-Aug-22 02:31N 35°38' E 139°46'0 0.0
2014-Aug-22 01:28N 35°38' E 139°46'0 0.0
2014-Aug-22 00:28N 35°38' E 139°46'0 0.0
2014-Aug-21 23:31N 35°38' E 139°46'0 0.0
2014-Aug-21 22:28N 35°38' E 139°46'3 3.5
2014-Aug-21 21:34N 35°35' E 139°48'1312.6
2014-Aug-21 20:33N 35°23' E 139°46'1010.0
2014-Aug-21 19:33N 35°13' E 139°47'1717.2
2014-Aug-21 18:33N 34°56' E 139°43'1514.9
2014-Aug-21 17:33N 34°53' E 140°00'1515.5
2014-Aug-21 16:33N 34°60' E 140°17'1615.5
2014-Aug-21 15:33N 35°10' E 140°32'1616.5
2014-Aug-21 14:33N 35°23' E 140°44'1717.1
2014-Aug-21 13:33N 35°37' E 140°56'1717.1
2014-Aug-21 12:33N 35°52' E 141°05'1817.5
2014-Aug-21 11:33N 36°09' E 141°10'  
2014-Aug-18 22:06N 36°53' E 141°25'916.2
2014-Aug-18 21:31N 36°44' E 141°22'3816.7
2014-Aug-18 19:14N 36°07' E 141°10'1216.4
2014-Aug-18 18:31N 35°56' E 141°06'1616.7
2014-Aug-18 17:33N 35°41' E 141°01'1616.4
2014-Aug-18 16:33N 35°27' E 140°50'1716.7
2014-Aug-18 15:33N 35°14' E 140°36'1716.9
2014-Aug-18 14:33N 35°01' E 140°23'1716.9
2014-Aug-18 13:33N 34°53' E 140°05'1615.9
2014-Aug-18 12:33N 34°52' E 139°46'1514.8
2014-Aug-18 11:33N 35°07' E 139°44'1312.9
2014-Aug-18 10:33N 35°19' E 139°43'1414.4
2014-Aug-18 09:33N 35°32' E 139°51'7 7.5
2014-Aug-18 08:33N 35°38' E 139°46'0 0.0
2014-Aug-18 07:32N 35°38' E 139°46'0 0.0
2014-Aug-18 06:32N 35°38' E 139°46'0 0.0
2014-Aug-18 05:32N 35°38' E 139°46'0 0.0
2014-Aug-18 04:32N 35°38' E 139°46'0 0.0
2014-Aug-18 03:32N 35°38' E 139°46'0 0.0
2014-Aug-18 02:33N 35°38' E 139°46'8 8.0
2014-Aug-18 01:33N 35°32' E 139°52'1515.0
2014-Aug-18 00:33N 35°18' E 139°45'25014.5
2014-Aug-17 07:16N 33°54' E 134°58'1115.2
2014-Aug-17 06:33N 34°04' E 134°58'1313.4
2014-Aug-17 05:33N 34°18' E 134°58'1616.5
2014-Aug-17 04:33N 34°33' E 135°06'1110.6
2014-Aug-17 03:34N 34°37' E 134°54'  

Dump ship's entire track history